createdAt,value
2022-07-27T00:00:16.553Z,20.25
2022-07-27T00:01:16.648Z,20.62
2022-07-27T00:02:16.520Z,20.68
2022-07-27T00:03:16.512Z,20.41
2022-07-27T00:04:16.535Z,20.62
2022-07-27T00:05:16.481Z,20.03
2022-07-27T00:06:16.467Z,20.14
2022-07-27T00:07:16.460Z,20.25
2022-07-27T00:08:16.441Z,20.25
2022-07-27T00:09:16.438Z,20.57
2022-07-27T00:10:16.417Z,20.03
2022-07-27T00:11:16.415Z,20.52
2022-07-27T00:12:16.392Z,20.25
2022-07-27T00:13:16.386Z,20.68
2022-07-27T00:14:16.363Z,20.14
2022-07-27T00:15:16.357Z,20.62
2022-07-27T00:16:16.395Z,20.14
2022-07-27T00:17:16.331Z,20.79
2022-07-27T00:18:16.314Z,20.14
2022-07-27T00:19:16.306Z,20.62
2022-07-27T00:20:16.290Z,19.66
2022-07-27T00:21:16.283Z,20.57
2022-07-27T00:22:16.258Z,20.52
2022-07-27T00:23:16.250Z,20.14
2022-07-27T00:24:16.236Z,19.82
2022-07-27T00:25:16.352Z,20.20
2022-07-27T00:26:16.210Z,20.46
2022-07-27T00:27:16.195Z,20.14
2022-07-27T00:28:16.184Z,20.62
2022-07-27T00:29:16.196Z,20.62
2022-07-27T00:30:16.154Z,20.30
2022-07-27T00:31:16.272Z,20.41
2022-07-27T00:32:16.128Z,19.93
2022-07-27T00:33:17.170Z,20.25
2022-07-27T00:34:16.100Z,20.20
2022-07-27T00:35:16.090Z,20.20
2022-07-27T00:36:16.073Z,19.77
2022-07-27T00:37:16.060Z,19.98
2022-07-27T00:38:16.045Z,20.30
2022-07-27T00:39:16.043Z,20.25
2022-07-27T00:40:16.018Z,19.71
2022-07-27T00:41:16.012Z,20.25
2022-07-27T00:42:16.100Z,20.09
2022-07-27T00:43:15.994Z,19.71
2022-07-27T00:44:15.968Z,20.20
2022-07-27T00:45:15.958Z,20.09
2022-07-27T00:46:15.998Z,20.30
2022-07-27T00:47:15.932Z,20.36
2022-07-27T00:48:15.918Z,20.41
2022-07-27T00:49:16.537Z,19.82
2022-07-27T00:50:15.896Z,20.14
2022-07-27T00:51:15.880Z,20.20
2022-07-27T00:52:15.865Z,19.82
2022-07-27T00:53:15.857Z,19.93
2022-07-27T00:54:15.840Z,19.77
2022-07-27T00:55:15.825Z,20.09
2022-07-27T00:56:15.813Z,20.20
2022-07-27T00:57:15.800Z,19.82
2022-07-27T00:58:15.782Z,19.55
2022-07-27T00:59:15.772Z,20.14
2022-07-27T01:00:15.755Z,19.98
2022-07-27T01:01:15.745Z,19.82
2022-07-27T01:02:19.412Z,19.77
2022-07-27T01:03:16.313Z,20.14
2022-07-27T01:04:15.703Z,19.77
2022-07-27T01:05:15.696Z,20.25
2022-07-27T01:06:15.692Z,20.14
2022-07-27T01:07:15.674Z,20.20
2022-07-27T01:08:15.654Z,19.71
2022-07-27T01:09:15.640Z,19.87
2022-07-27T01:10:15.623Z,20.20
2022-07-27T01:11:15.617Z,20.25
2022-07-27T01:12:15.598Z,20.09
2022-07-27T01:13:15.598Z,19.71
2022-07-27T01:14:15.568Z,19.77
2022-07-27T01:15:15.564Z,20.20
2022-07-27T01:16:15.668Z,19.82
2022-07-27T01:17:15.535Z,20.14
2022-07-27T01:18:15.518Z,19.87
2022-07-27T01:19:15.822Z,20.14
2022-07-27T01:20:15.494Z,20.25
2022-07-27T01:21:15.478Z,20.25
2022-07-27T01:22:15.466Z,19.55
2022-07-27T01:23:15.451Z,20.25
2022-07-27T01:24:15.434Z,20.14
2022-07-27T01:25:15.428Z,20.09
2022-07-27T01:26:15.409Z,20.25
2022-07-27T01:27:15.401Z,19.98
2022-07-27T01:28:15.387Z,19.77
2022-07-27T01:29:15.626Z,19.77
2022-07-27T01:30:15.367Z,19.93
2022-07-27T01:31:15.442Z,20.03
2022-07-27T01:32:15.328Z,20.14
2022-07-27T01:33:15.325Z,19.77
2022-07-27T01:34:15.302Z,19.87
2022-07-27T01:35:15.291Z,20.14
2022-07-27T01:36:15.278Z,20.09
2022-07-27T01:37:15.274Z,20.14
2022-07-27T01:38:15.255Z,19.82
2022-07-27T01:39:15.653Z,20.09
2022-07-27T01:40:15.232Z,20.25
2022-07-27T01:41:15.222Z,20.30
2022-07-27T01:42:15.202Z,20.25
2022-07-27T01:43:15.191Z,20.20
2022-07-27T01:44:15.176Z,19.71
2022-07-27T01:45:15.161Z,19.71
2022-07-27T01:46:15.182Z,19.77
2022-07-27T01:47:15.333Z,20.36
2022-07-27T01:48:15.117Z,20.09
2022-07-27T01:49:15.937Z,19.82
2022-07-27T01:50:15.096Z,20.25
2022-07-27T01:51:15.086Z,19.77
2022-07-27T01:52:15.079Z,19.98
2022-07-27T01:53:15.059Z,19.71
2022-07-27T01:54:15.050Z,20.25
2022-07-27T01:55:15.033Z,19.93
2022-07-27T01:56:15.015Z,19.60
2022-07-27T01:57:15.004Z,20.03
2022-07-27T01:58:14.986Z,19.87
2022-07-27T01:59:16.164Z,19.93
2022-07-27T02:00:14.967Z,20.14
2022-07-27T02:01:15.014Z,19.77
2022-07-27T02:02:14.936Z,20.20
2022-07-27T02:03:14.919Z,19.82
2022-07-27T02:04:14.905Z,19.87
2022-07-27T02:05:14.987Z,20.30
2022-07-27T02:06:14.884Z,19.55
2022-07-27T02:07:14.869Z,20.25
2022-07-27T02:08:14.858Z,19.87
2022-07-27T02:09:15.157Z,19.87
2022-07-27T02:10:14.834Z,19.77
2022-07-27T02:11:14.824Z,20.03
2022-07-27T02:12:14.806Z,19.77
2022-07-27T02:13:22.427Z,19.77
2022-07-27T02:14:14.779Z,19.82
2022-07-27T02:15:15.707Z,19.66
2022-07-27T02:16:17.061Z,19.87
2022-07-27T02:17:14.737Z,19.87
2022-07-27T02:18:29.383Z,20.30
2022-07-27T02:19:16.400Z,19.87
2022-07-27T02:20:14.742Z,20.09
2022-07-27T02:21:14.682Z,19.71
2022-07-27T02:22:14.669Z,20.25
2022-07-27T02:23:14.685Z,20.20
2022-07-27T02:24:14.650Z,19.93
2022-07-27T02:25:14.633Z,20.09
2022-07-27T02:26:14.623Z,20.14
2022-07-27T02:27:14.607Z,19.87
2022-07-27T02:28:14.609Z,19.77
2022-07-27T02:29:15.014Z,19.87
2022-07-27T02:30:14.568Z,20.14
2022-07-27T02:31:14.551Z,20.25
2022-07-27T02:32:14.547Z,19.82
2022-07-27T02:33:14.591Z,19.98
2022-07-27T02:34:14.514Z,19.87
2022-07-27T02:35:18.548Z,20.25
2022-07-27T02:36:14.493Z,20.25
2022-07-27T02:37:14.479Z,20.14
2022-07-27T02:38:14.466Z,20.09
2022-07-27T02:39:14.768Z,20.09
2022-07-27T02:40:14.437Z,20.30
2022-07-27T02:41:14.417Z,20.25
2022-07-27T02:42:14.407Z,20.20
2022-07-27T02:43:14.393Z,20.20
2022-07-27T02:44:14.388Z,20.25
2022-07-27T02:45:14.371Z,19.87
2022-07-27T02:46:14.456Z,20.30
2022-07-27T02:47:14.338Z,19.87
2022-07-27T02:48:14.331Z,19.87
2022-07-27T02:49:15.024Z,19.98
2022-07-27T02:50:14.303Z,20.25
2022-07-27T02:51:14.289Z,20.03
2022-07-27T02:52:14.286Z,20.20
2022-07-27T02:53:14.262Z,20.30
2022-07-27T02:54:14.253Z,19.87
2022-07-27T02:55:14.238Z,19.87
2022-07-27T02:56:14.227Z,19.98
2022-07-27T02:57:14.211Z,20.25
2022-07-27T02:58:14.206Z,19.82
2022-07-27T02:59:14.608Z,19.77
2022-07-27T03:00:14.169Z,20.20
2022-07-27T03:01:14.212Z,19.82
2022-07-27T03:02:14.144Z,19.82
2022-07-27T03:03:14.126Z,20.09
2022-07-27T03:04:14.167Z,19.82
2022-07-27T03:05:14.099Z,20.36
2022-07-27T03:06:14.099Z,20.25
2022-07-27T03:07:14.073Z,19.71
2022-07-27T03:08:14.066Z,20.36
2022-07-27T03:09:14.504Z,19.77
2022-07-27T03:10:14.047Z,19.77
2022-07-27T03:11:14.025Z,20.30
2022-07-27T03:12:14.007Z,19.77
2022-07-27T03:13:13.995Z,19.82
2022-07-27T03:14:13.985Z,20.25
2022-07-27T03:15:13.968Z,19.82
2022-07-27T03:16:14.062Z,19.93
2022-07-27T03:17:13.942Z,19.93
2022-07-27T03:18:13.929Z,19.93
2022-07-27T03:19:14.384Z,20.25
2022-07-27T03:20:13.908Z,20.20
2022-07-27T03:21:13.888Z,19.98
2022-07-27T03:22:13.882Z,20.03
2022-07-27T03:23:13.864Z,19.87
2022-07-27T03:24:13.854Z,19.98
2022-07-27T03:25:13.832Z,19.66
2022-07-27T03:26:13.830Z,19.77
2022-07-27T03:27:13.809Z,19.77
2022-07-27T03:28:13.796Z,19.93
2022-07-27T03:29:14.287Z,20.20
2022-07-27T03:30:13.768Z,20.20
2022-07-27T03:31:13.794Z,20.20
2022-07-27T03:32:13.739Z,20.09
2022-07-27T03:33:13.727Z,20.09
2022-07-27T03:34:13.714Z,20.25
2022-07-27T03:35:13.703Z,19.93
2022-07-27T03:36:13.696Z,20.14
2022-07-27T03:37:13.669Z,19.77
2022-07-27T03:38:13.663Z,20.09
2022-07-27T03:39:14.062Z,19.77
2022-07-27T03:40:13.630Z,19.77
2022-07-27T03:41:13.620Z,19.82
2022-07-27T03:42:13.608Z,19.77
2022-07-27T03:43:13.593Z,20.09
2022-07-27T03:44:13.583Z,20.20
2022-07-27T03:45:13.567Z,19.98
2022-07-27T03:46:13.630Z,19.98
2022-07-27T03:47:13.539Z,19.82
2022-07-27T03:48:13.524Z,19.71
2022-07-27T03:49:14.480Z,19.82
2022-07-27T03:50:13.502Z,19.82
2022-07-27T03:51:13.491Z,19.77
2022-07-27T03:52:17.625Z,20.14
2022-07-27T03:53:13.461Z,19.87
2022-07-27T03:54:13.450Z,19.98
2022-07-27T03:55:13.431Z,19.82
2022-07-27T03:56:13.440Z,20.20
2022-07-27T03:57:13.409Z,20.25
2022-07-27T03:58:13.396Z,19.82
2022-07-27T03:59:13.845Z,20.46
2022-07-27T04:00:13.378Z,19.71
2022-07-27T04:01:13.447Z,19.82
2022-07-27T04:02:13.404Z,19.82
2022-07-27T04:03:13.325Z,19.87
2022-07-27T04:04:13.312Z,20.36
2022-07-27T04:05:13.292Z,20.41
2022-07-27T04:06:13.289Z,20.25
2022-07-27T04:07:13.270Z,19.87
2022-07-27T04:08:13.258Z,20.36
2022-07-27T04:09:14.132Z,19.93
2022-07-27T04:10:13.234Z,20.20
2022-07-27T04:11:13.262Z,19.93
2022-07-27T04:12:13.203Z,19.87
2022-07-27T04:13:13.199Z,19.87
2022-07-27T04:14:13.178Z,19.87
2022-07-27T04:15:13.158Z,19.77
2022-07-27T04:16:13.200Z,19.87
2022-07-27T04:17:13.215Z,19.71
2022-07-27T04:18:13.119Z,19.60
2022-07-27T04:19:13.695Z,19.82
2022-07-27T04:20:13.095Z,20.20
2022-07-27T04:21:13.076Z,20.30
2022-07-27T04:22:13.088Z,19.71
2022-07-27T04:23:13.057Z,19.82
2022-07-27T04:24:13.042Z,19.82
2022-07-27T04:25:13.028Z,20.30
2022-07-27T04:26:13.021Z,20.36
2022-07-27T04:27:13.006Z,20.09
2022-07-27T04:28:13.001Z,19.71
2022-07-27T04:29:16.885Z,19.82
2022-07-27T04:30:12.968Z,19.82
2022-07-27T04:31:13.024Z,19.87
2022-07-27T04:32:12.937Z,19.71
2022-07-27T04:33:12.924Z,19.87
2022-07-27T04:34:12.912Z,19.93
2022-07-27T04:35:12.891Z,19.93
2022-07-27T04:36:12.889Z,19.50
2022-07-27T04:37:12.866Z,19.87
2022-07-27T04:38:12.859Z,19.50
2022-07-27T04:39:13.261Z,19.71
2022-07-27T04:40:12.830Z,19.98
2022-07-27T04:41:12.827Z,19.50
2022-07-27T04:42:12.807Z,19.66
2022-07-27T04:43:12.787Z,19.66
2022-07-27T04:44:12.783Z,19.71
2022-07-27T04:45:12.774Z,19.71
2022-07-27T04:46:15.313Z,19.71
2022-07-27T04:47:12.742Z,19.98
2022-07-27T04:48:12.722Z,19.82
2022-07-27T04:49:13.121Z,20.25
2022-07-27T04:50:12.707Z,20.03
2022-07-27T04:51:12.683Z,19.82
2022-07-27T04:52:12.672Z,19.55
2022-07-27T04:53:12.659Z,19.98
2022-07-27T04:54:12.642Z,19.93
2022-07-27T04:55:12.629Z,19.71
2022-07-27T04:56:12.617Z,19.93
2022-07-27T04:57:12.607Z,19.71
2022-07-27T04:58:12.593Z,19.55
2022-07-27T04:59:13.152Z,19.77
2022-07-27T05:00:12.561Z,19.87
2022-07-27T05:01:12.626Z,19.82
2022-07-27T05:02:12.544Z,50.33
2022-07-27T05:03:12.522Z,50.17
2022-07-27T05:04:12.626Z,47.64
2022-07-27T05:05:12.501Z,29.70
2022-07-27T05:06:12.481Z,27.77
2022-07-27T05:07:12.468Z,26.86
2022-07-27T05:08:12.462Z,26.26
2022-07-27T05:09:12.982Z,26.43
2022-07-27T05:10:16.578Z,26.26
2022-07-27T05:11:13.441Z,25.41
2022-07-27T05:12:12.400Z,24.65
2022-07-27T05:13:12.390Z,24.98
2022-07-27T05:14:12.392Z,25.08
2022-07-27T05:15:12.362Z,24.76
2022-07-27T05:16:12.417Z,24.76
2022-07-27T05:17:12.335Z,24.01
2022-07-27T05:18:12.326Z,23.63
2022-07-27T05:19:12.689Z,24.12
2022-07-27T05:20:12.299Z,23.96
2022-07-27T05:21:12.280Z,24.12
2022-07-27T05:22:12.274Z,23.74
2022-07-27T05:23:12.257Z,23.74
2022-07-27T05:24:12.242Z,23.69
2022-07-27T05:25:12.255Z,23.79
2022-07-27T05:26:12.217Z,23.69
2022-07-27T05:27:12.210Z,23.53
2022-07-27T05:28:12.215Z,23.53
2022-07-27T05:29:12.593Z,23.20
2022-07-27T05:30:12.176Z,23.47
2022-07-27T05:31:12.143Z,22.77
2022-07-27T05:32:12.165Z,22.56
2022-07-27T05:33:12.127Z,22.56
2022-07-27T05:34:12.106Z,23.47
2022-07-27T05:35:12.098Z,22.40
2022-07-27T05:36:12.090Z,22.67
2022-07-27T05:37:12.071Z,22.77
2022-07-27T05:38:12.057Z,22.83
2022-07-27T05:39:13.972Z,22.40
2022-07-27T05:40:12.034Z,22.99
2022-07-27T05:41:12.019Z,22.45
2022-07-27T05:42:12.004Z,22.34
2022-07-27T05:43:11.984Z,22.29
2022-07-27T05:44:11.980Z,22.40
2022-07-27T05:45:11.960Z,22.77
2022-07-27T05:46:11.989Z,22.40
2022-07-27T05:47:11.959Z,22.29
2022-07-27T05:48:11.926Z,22.40
2022-07-27T05:49:12.150Z,22.83
2022-07-27T05:50:11.902Z,22.29
2022-07-27T05:51:11.881Z,22.83
2022-07-27T05:52:11.869Z,22.40
2022-07-27T05:53:12.053Z,22.50
2022-07-27T05:54:11.851Z,22.45
2022-07-27T05:55:11.837Z,22.29
2022-07-27T05:56:11.828Z,22.29
2022-07-27T05:57:11.812Z,22.40
2022-07-27T05:58:11.793Z,21.81
2022-07-27T05:59:12.136Z,22.13
2022-07-27T06:00:11.771Z,21.97
2022-07-27T06:01:11.834Z,21.91
2022-07-27T06:02:11.735Z,22.02
2022-07-27T06:03:11.784Z,22.29
2022-07-27T06:04:14.525Z,22.29
2022-07-27T06:05:15.533Z,22.40
2022-07-27T06:06:11.689Z,21.97
2022-07-27T06:07:11.671Z,22.40
2022-07-27T06:08:11.656Z,22.40
2022-07-27T06:09:12.192Z,21.43
2022-07-27T06:10:11.635Z,22.34
2022-07-27T06:11:11.621Z,21.91
2022-07-27T06:12:11.605Z,21.75
2022-07-27T06:13:11.596Z,22.02
2022-07-27T06:14:11.583Z,21.91
2022-07-27T06:15:11.569Z,21.91
2022-07-27T06:16:11.621Z,21.32
2022-07-27T06:17:11.537Z,22.08
2022-07-27T06:18:11.535Z,21.86
2022-07-27T06:19:11.808Z,21.97
2022-07-27T06:20:11.503Z,21.86
2022-07-27T06:21:11.485Z,21.43
2022-07-27T06:22:11.477Z,21.38
2022-07-27T06:23:11.470Z,21.43
2022-07-27T06:24:11.458Z,21.97
2022-07-27T06:25:11.436Z,21.91
2022-07-27T06:26:11.426Z,21.32
2022-07-27T06:27:11.408Z,21.48
2022-07-27T06:28:11.399Z,21.48
2022-07-27T06:29:11.638Z,21.86
2022-07-27T06:30:11.372Z,21.05
2022-07-27T06:31:11.427Z,21.43
2022-07-27T06:32:11.506Z,21.32
2022-07-27T06:33:11.340Z,21.32
2022-07-27T06:34:11.775Z,21.32
2022-07-27T06:35:11.314Z,21.43
2022-07-27T06:36:11.296Z,22.08
2022-07-27T06:37:11.285Z,21.27
2022-07-27T06:38:11.271Z,21.05
2022-07-27T06:39:11.613Z,21.00
2022-07-27T06:40:11.236Z,22.02
2022-07-27T06:41:11.234Z,21.54
2022-07-27T06:42:11.213Z,20.89
2022-07-27T06:43:11.209Z,21.86
2022-07-27T06:44:11.195Z,21.16
2022-07-27T06:45:11.176Z,21.54
2022-07-27T06:46:11.166Z,21.05
2022-07-27T06:47:11.313Z,21.54
2022-07-27T06:48:11.135Z,21.00
2022-07-27T06:49:11.602Z,21.32
2022-07-27T06:50:11.112Z,21.11
2022-07-27T06:51:11.108Z,21.00
2022-07-27T06:52:11.080Z,21.05
2022-07-27T06:53:11.081Z,21.05
2022-07-27T06:54:11.052Z,21.38
2022-07-27T06:55:11.049Z,21.05
2022-07-27T06:56:11.032Z,20.95
2022-07-27T06:57:11.258Z,21.16
2022-07-27T06:58:11.019Z,21.43
2022-07-27T06:59:11.296Z,21.05
2022-07-27T07:00:10.987Z,21.22
2022-07-27T07:01:11.062Z,21.16
2022-07-27T07:02:10.950Z,20.95
2022-07-27T07:03:10.945Z,20.84
2022-07-27T07:04:10.985Z,21.11
2022-07-27T07:05:11.018Z,20.62
2022-07-27T07:06:10.899Z,21.48
2022-07-27T07:07:10.902Z,21.43
2022-07-27T07:08:10.869Z,21.00
2022-07-27T07:09:11.239Z,20.95
2022-07-27T07:10:10.852Z,20.62
2022-07-27T07:11:10.854Z,21.11
2022-07-27T07:12:10.826Z,21.00
2022-07-27T07:13:10.809Z,21.05
2022-07-27T07:14:10.799Z,20.95
2022-07-27T07:15:10.788Z,20.95
2022-07-27T07:16:10.821Z,20.95
2022-07-27T07:17:10.757Z,21.16
2022-07-27T07:18:10.753Z,21.11
2022-07-27T07:19:11.086Z,21.00
2022-07-27T07:20:10.717Z,20.84
2022-07-27T07:21:10.711Z,20.95
2022-07-27T07:22:10.689Z,20.57
2022-07-27T07:23:10.688Z,20.62
2022-07-27T07:24:10.666Z,20.52
2022-07-27T07:25:10.659Z,20.95
2022-07-27T07:26:10.647Z,20.62
2022-07-27T07:27:10.639Z,20.79
2022-07-27T07:28:10.624Z,20.68
2022-07-27T07:29:11.000Z,21.22
2022-07-27T07:30:10.589Z,20.57
2022-07-27T07:31:10.608Z,20.84
2022-07-27T07:32:10.566Z,20.95
2022-07-27T07:33:10.559Z,21.00
2022-07-27T07:34:10.552Z,21.05
2022-07-27T07:35:10.533Z,20.52
2022-07-27T07:36:13.713Z,21.05
2022-07-27T07:37:10.511Z,21.00
2022-07-27T07:38:10.497Z,20.95
2022-07-27T07:39:10.916Z,20.52
2022-07-27T07:40:41.508Z,21.00
2022-07-27T07:41:11.472Z,20.57
2022-07-27T07:42:10.985Z,20.68
2022-07-27T07:43:10.433Z,20.52
2022-07-27T07:44:10.432Z,20.62
2022-07-27T07:45:10.404Z,20.95
2022-07-27T07:46:10.481Z,20.73
2022-07-27T07:47:10.441Z,21.00
2022-07-27T07:48:10.366Z,21.00
2022-07-27T07:49:11.009Z,20.68
2022-07-27T07:50:10.342Z,20.73
2022-07-27T07:51:10.324Z,20.57
2022-07-27T07:52:10.314Z,20.52
2022-07-27T07:53:10.301Z,20.73
2022-07-27T07:54:10.290Z,21.00
2022-07-27T07:55:10.274Z,20.52
2022-07-27T07:56:10.262Z,20.41
2022-07-27T07:57:10.252Z,20.68
2022-07-27T07:58:10.587Z,20.52
2022-07-27T07:59:10.575Z,20.25
2022-07-27T08:00:10.210Z,20.52
2022-07-27T08:01:10.196Z,20.62
2022-07-27T08:02:10.253Z,20.57
2022-07-27T08:03:10.331Z,20.57
2022-07-27T08:04:10.158Z,20.57
2022-07-27T08:05:10.141Z,20.52
2022-07-27T08:06:10.129Z,20.68
2022-07-27T08:07:10.113Z,20.20
2022-07-27T08:08:10.102Z,20.09
2022-07-27T08:09:10.523Z,20.57
2022-07-27T08:10:10.071Z,20.03
2022-07-27T08:11:10.063Z,20.95
2022-07-27T08:12:10.053Z,20.25
2022-07-27T08:13:10.043Z,20.09
2022-07-27T08:14:10.023Z,20.68
2022-07-27T08:15:10.015Z,20.14
2022-07-27T08:16:10.075Z,20.20
2022-07-27T08:17:09.989Z,20.30
2022-07-27T08:18:09.977Z,20.57
2022-07-27T08:19:10.208Z,20.36
2022-07-27T08:20:09.943Z,20.68
2022-07-27T08:21:09.941Z,20.25
2022-07-27T08:22:09.920Z,20.20
2022-07-27T08:23:09.915Z,20.62
2022-07-27T08:24:09.904Z,20.52
2022-07-27T08:25:09.889Z,20.46
2022-07-27T08:26:09.873Z,20.25
2022-07-27T08:27:09.863Z,20.57
2022-07-27T08:28:09.850Z,20.25
2022-07-27T08:29:13.762Z,20.68
2022-07-27T08:30:09.823Z,19.93
2022-07-27T08:31:15.242Z,20.14
2022-07-27T08:32:09.883Z,19.87
2022-07-27T08:33:09.791Z,20.14
2022-07-27T08:34:09.772Z,20.36
2022-07-27T08:35:09.770Z,20.20
2022-07-27T08:36:09.742Z,19.77
2022-07-27T08:37:14.958Z,20.14
2022-07-27T08:38:09.736Z,20.20
2022-07-27T08:39:09.963Z,20.14
2022-07-27T08:41:09.694Z,20.36
2022-07-27T08:42:09.672Z,20.20
2022-07-27T08:43:09.669Z,20.25
2022-07-27T08:44:09.653Z,20.25
2022-07-27T08:45:09.652Z,20.25
2022-07-27T08:46:10.706Z,20.14
2022-07-27T08:47:09.723Z,20.30
2022-07-27T08:48:09.597Z,20.25
2022-07-27T08:49:09.970Z,19.82
2022-07-27T08:50:09.573Z,19.87
2022-07-27T08:51:09.569Z,20.20
2022-07-27T08:52:09.546Z,19.82
2022-07-27T08:53:09.581Z,20.20
2022-07-27T08:54:09.524Z,20.25
2022-07-27T08:55:09.510Z,20.09
2022-07-27T08:56:09.493Z,19.77
2022-07-27T08:57:09.481Z,20.46
2022-07-27T08:58:09.488Z,19.93
2022-07-27T08:59:09.656Z,20.20
2022-07-27T09:00:09.441Z,20.20
2022-07-27T09:01:09.429Z,20.25
2022-07-27T09:02:09.492Z,20.25
2022-07-27T09:03:13.209Z,19.87
2022-07-27T09:04:10.417Z,19.87
2022-07-27T09:05:09.376Z,20.03
2022-07-27T09:06:09.359Z,20.14
2022-07-27T09:07:09.349Z,19.87
2022-07-27T09:08:09.334Z,19.82
2022-07-27T09:09:09.495Z,19.87
2022-07-27T09:10:09.313Z,19.71
2022-07-27T09:11:09.297Z,19.71
2022-07-27T09:12:09.303Z,19.82
2022-07-27T09:13:09.281Z,20.20
2022-07-27T09:14:09.260Z,19.77
2022-07-27T09:15:09.251Z,19.77
2022-07-27T09:16:18.613Z,19.71
2022-07-27T09:17:47.356Z,20.09
2022-07-27T09:18:10.283Z,20.25
2022-07-27T09:19:09.390Z,20.25
2022-07-27T09:20:12.017Z,19.77
2022-07-27T09:21:09.180Z,19.87
2022-07-27T09:22:09.162Z,19.77
2022-07-27T09:23:09.153Z,19.82
2022-07-27T09:24:18.060Z,19.77
2022-07-27T09:25:10.149Z,19.87
2022-07-27T09:26:20.461Z,19.60
2022-07-27T09:27:09.102Z,19.71
2022-07-27T09:28:09.086Z,19.82
2022-07-27T09:29:09.394Z,20.20
2022-07-27T09:30:09.055Z,19.77
2022-07-27T09:31:09.203Z,19.82
2022-07-27T09:32:09.036Z,19.82
2022-07-27T09:33:09.023Z,19.55
2022-07-27T09:34:09.013Z,19.82
2022-07-27T09:35:09.019Z,19.77
2022-07-27T09:36:08.983Z,19.66
2022-07-27T09:37:08.978Z,19.71
2022-07-27T09:38:08.961Z,19.87
2022-07-27T09:39:08.953Z,19.66
2022-07-27T09:40:08.935Z,19.60
2022-07-27T09:41:08.932Z,19.66
2022-07-27T09:42:09.342Z,19.55
2022-07-27T09:43:52.321Z,19.60
2022-07-27T09:45:08.880Z,19.77
2022-07-27T09:46:08.893Z,19.71
2022-07-27T09:47:08.856Z,19.60
2022-07-27T09:48:08.838Z,19.60
2022-07-27T09:49:08.871Z,19.12
2022-07-27T09:50:08.815Z,19.87
2022-07-27T09:51:55.636Z,19.66
2022-07-27T09:52:08.794Z,19.60
2022-07-27T09:53:40.815Z,19.66
2022-07-27T09:54:08.995Z,19.66
2022-07-27T09:55:08.775Z,19.66
2022-07-27T09:56:08.747Z,19.60
2022-07-27T09:57:08.729Z,19.66
2022-07-27T09:58:10.042Z,19.60
2022-07-27T09:59:08.703Z,19.66
2022-07-27T10:00:08.686Z,19.66
2022-07-27T10:01:08.692Z,20.14
2022-07-27T10:02:08.832Z,50.22
2022-07-27T10:03:08.653Z,50.38
2022-07-27T10:04:09.020Z,50.49
2022-07-27T10:05:08.693Z,29.65
2022-07-27T10:06:08.613Z,28.20
2022-07-27T10:07:12.684Z,27.50
2022-07-27T10:08:08.698Z,27.02
2022-07-27T10:09:08.575Z,26.05
2022-07-27T10:10:08.563Z,25.51
2022-07-27T10:11:08.555Z,25.14
2022-07-27T10:12:08.568Z,24.76
2022-07-27T10:13:08.536Z,24.65
2022-07-27T10:14:08.561Z,24.06
2022-07-27T10:15:08.512Z,24.22
2022-07-27T10:16:08.556Z,24.22
2022-07-27T10:17:08.483Z,23.63
2022-07-27T10:18:08.470Z,23.36
2022-07-27T10:19:08.712Z,23.36
2022-07-27T10:20:08.444Z,23.42
2022-07-27T10:21:08.431Z,22.83
2022-07-27T10:22:08.415Z,23.31
2022-07-27T10:23:08.415Z,22.99
2022-07-27T10:24:08.397Z,22.83
2022-07-27T10:25:08.381Z,22.40
2022-07-27T10:26:08.368Z,22.83
2022-07-27T10:27:08.360Z,22.40
2022-07-27T10:28:08.344Z,22.56
2022-07-27T10:29:08.427Z,34.48
2022-07-27T10:30:08.324Z,50.27
2022-07-27T10:31:08.354Z,50.22
2022-07-27T10:32:08.295Z,36.68
2022-07-27T10:33:08.292Z,27.93
2022-07-27T10:34:08.605Z,26.75
2022-07-27T10:35:08.268Z,25.24
2022-07-27T10:36:09.662Z,25.24
2022-07-27T10:37:08.243Z,24.17
2022-07-27T10:38:08.230Z,23.90
2022-07-27T10:39:08.223Z,23.79
2022-07-27T10:40:08.209Z,23.10
2022-07-27T10:41:08.196Z,22.72
2022-07-27T10:42:08.182Z,22.56
2022-07-27T10:43:08.177Z,22.88
2022-07-27T10:44:08.270Z,21.97
2022-07-27T10:45:08.324Z,22.02
2022-07-27T10:46:08.192Z,22.34
2022-07-27T10:47:08.124Z,22.13
2022-07-27T10:48:08.108Z,22.02
2022-07-27T10:49:08.277Z,21.97
2022-07-27T10:50:08.084Z,21.54
2022-07-27T10:51:08.073Z,21.65
2022-07-27T10:52:08.055Z,21.32
2022-07-27T10:53:08.046Z,21.32
2022-07-27T10:54:12.287Z,21.48
2022-07-27T10:55:08.025Z,21.43
2022-07-27T10:56:08.017Z,21.11
2022-07-27T10:57:08.007Z,21.05
2022-07-27T10:58:07.996Z,21.00
2022-07-27T10:59:07.975Z,20.95
2022-07-27T11:00:11.022Z,21.22
2022-07-27T11:01:09.047Z,20.95
2022-07-27T11:02:07.940Z,21.00
2022-07-27T11:03:07.933Z,20.62
2022-07-27T11:04:07.974Z,20.62
2022-07-27T11:05:09.025Z,20.62
2022-07-27T11:06:31.315Z,20.62
2022-07-27T11:07:25.006Z,20.30
2022-07-27T11:08:36.547Z,20.62
2022-07-27T11:10:07.884Z,20.57
2022-07-27T11:11:07.853Z,20.95
2022-07-27T11:12:07.830Z,20.62
2022-07-27T11:13:09.975Z,21.00
2022-07-27T11:14:07.795Z,20.62
2022-07-27T11:15:07.779Z,20.68
2022-07-27T11:16:24.707Z,20.14
2022-07-27T11:18:07.825Z,20.14
2022-07-27T11:19:07.798Z,20.62
2022-07-27T11:20:07.734Z,20.52
2022-07-27T11:21:07.736Z,20.30
2022-07-27T11:22:27.673Z,20.57
2022-07-27T11:23:50.064Z,20.14
2022-07-27T11:24:08.812Z,20.62
2022-07-27T11:25:07.662Z,20.41
2022-07-27T11:26:07.643Z,20.57
2022-07-27T11:27:17.163Z,20.14
2022-07-27T11:28:08.671Z,20.79
2022-07-27T11:29:07.616Z,20.30
2022-07-27T11:30:07.683Z,20.25
2022-07-27T11:31:07.613Z,20.14
2022-07-27T11:32:07.599Z,20.20
2022-07-27T11:33:07.563Z,20.25
2022-07-27T11:34:07.550Z,20.20
2022-07-27T11:35:10.939Z,20.30
2022-07-27T11:36:07.525Z,20.03
2022-07-27T11:37:07.512Z,20.73
2022-07-27T11:38:07.501Z,20.03
2022-07-27T11:39:07.486Z,20.68
2022-07-27T11:40:28.191Z,20.30
2022-07-27T11:41:15.304Z,19.87
2022-07-27T11:42:08.033Z,20.30
2022-07-27T11:43:07.440Z,19.66
2022-07-27T11:44:07.433Z,19.66
2022-07-27T11:45:07.418Z,19.77
2022-07-27T11:46:07.486Z,20.30
2022-07-27T11:47:07.390Z,20.14
2022-07-27T11:48:07.377Z,19.82
2022-07-27T11:49:08.760Z,20.25
2022-07-27T11:50:07.519Z,19.77
2022-07-27T11:51:07.354Z,20.20
2022-07-27T11:52:07.420Z,20.25
2022-07-27T11:53:07.335Z,19.82
2022-07-27T11:54:07.324Z,19.93
2022-07-27T11:55:07.438Z,20.20
2022-07-27T11:56:07.285Z,19.87
2022-07-27T11:57:07.272Z,20.30
2022-07-27T11:58:07.271Z,19.87
2022-07-27T11:59:13.688Z,20.30
2022-07-27T12:00:07.692Z,19.71
2022-07-27T12:01:07.305Z,19.77
2022-07-27T12:02:07.288Z,20.14
2022-07-27T12:03:07.616Z,20.25
2022-07-27T12:04:07.206Z,20.14
2022-07-27T12:05:07.426Z,19.82
2022-07-27T12:06:07.148Z,20.14
2022-07-27T12:07:07.142Z,20.09
2022-07-27T12:08:07.327Z,20.09
2022-07-27T12:09:07.633Z,19.82
2022-07-27T12:10:07.159Z,19.93
2022-07-27T12:11:07.110Z,19.77
2022-07-27T12:12:07.106Z,20.20
2022-07-27T12:13:07.133Z,20.20
2022-07-27T12:14:07.105Z,20.09
2022-07-27T12:15:28.068Z,19.71
2022-07-27T12:16:07.027Z,19.82
2022-07-27T12:17:07.326Z,20.30
2022-07-27T12:18:07.151Z,19.87
2022-07-27T12:19:07.017Z,19.82
2022-07-27T12:20:06.978Z,19.77
2022-07-27T12:21:06.985Z,19.77
2022-07-27T12:22:07.053Z,19.82
2022-07-27T12:23:07.089Z,19.87
2022-07-27T12:24:06.920Z,19.77
2022-07-27T12:25:16.106Z,19.87
2022-07-27T12:26:06.903Z,19.93
2022-07-27T12:27:07.073Z,19.82
2022-07-27T12:28:06.869Z,19.77
2022-07-27T12:29:06.856Z,19.82
2022-07-27T12:30:06.853Z,19.93
2022-07-27T12:31:06.887Z,19.82
2022-07-27T12:32:06.828Z,19.82
2022-07-27T12:33:07.057Z,19.66
2022-07-27T12:34:06.901Z,19.60
2022-07-27T12:35:06.786Z,19.77
2022-07-27T12:36:06.779Z,19.77
2022-07-27T12:37:06.746Z,19.87
2022-07-27T12:38:06.754Z,19.82
2022-07-27T12:39:06.735Z,20.20
2022-07-27T12:40:06.714Z,19.66
2022-07-27T12:41:06.706Z,19.55
2022-07-27T12:42:06.697Z,19.82
2022-07-27T12:43:06.674Z,19.77
2022-07-27T12:44:06.663Z,19.87
2022-07-27T12:45:06.659Z,19.93
2022-07-27T12:46:06.698Z,19.93
2022-07-27T12:47:06.623Z,19.77
2022-07-27T12:48:06.629Z,19.60
2022-07-27T12:49:06.631Z,19.28
2022-07-27T12:50:06.589Z,19.77
2022-07-27T12:51:06.580Z,19.87
2022-07-27T12:52:06.565Z,19.71
2022-07-27T12:53:06.551Z,19.50
2022-07-27T12:54:06.544Z,19.77
2022-07-27T12:55:08.598Z,19.77
2022-07-27T12:56:06.713Z,19.66